Detall de PIREP

Printer-friendly versionPDF version

[2011/06/03 17:44:00]
Flight IATA:CT3317
Pilot Number:042
Company ICAO:CAT
Aircraft Type:B744/E
PAX:340
Departing Airport: OSDI
Destination Airport: LEZG
Alternate Airport:LEMD
Online: VATSIM
Route:DAROS UR19 DASNI UM601 RDS UL995 KEA UL607 ATV UN604 RUTOM UM601 NERAR UQ182 MALAV UM601 BCN UN725 VAKIN
Flight Level:F350
No Slew and time accel
No pause
Crash detect
Detect pilot in Cockpit between each 30 and 45 minutes
17:44 Zero fuel Weight: 466688 Lbs, Fuel Weight: 255216 Lbs
17:44 VATSIM:OSDI 031700Z 21014KT CAVOK 27/05 Q1012
17:44 VATSIM:LEZG 031700Z 13012KT 9999 FEW050TCU BKN075 23/06 Q1017
17:44 VOICE CATALONIAN
17:45 Parking Brakes off
17:55 Take-off
17:55 Take off Weight: 719499 Lbs
17:55 Wind: 206 @ 014 Knots Heading: 225
17:55 POS N33 23 43 E036 30 37
17:55 Gear Up: 184 Knots
17:55 Flaps:3 at 184 Knots
17:55 Flaps:2 at 190 Knots
17:56 Flaps:1 at 244 Knots
17:57 Flaps:0 at 252 Knots
18:10 Wind:318@028 Knots Heading: 300 Ground Speed: 476 Knots Altitude 31036 ft
18:25 Wind:285@031 Knots Heading: 291 Ground Speed: 462 Knots Altitude 33953 ft
18:40 Wind:245@026 Knots Heading: 288 Ground Speed: 473 Knots Altitude 33966 ft
18:55 Wind:230@044 Knots Heading: 284 Ground Speed: 468 Knots Altitude 33963 ft
19:10 Wind:004@031 Knots Heading: 291 Ground Speed: 485 Knots Altitude 34019 ft
19:25 Wind:168@003 Knots Heading: 285 Ground Speed: 492 Knots Altitude 34071 ft
19:35 Flaps:1 at 298 Knots
19:35 Flaps:0 at 293 Knots
19:40 Wind:359@002 Knots Heading: 284 Ground Speed: 489 Knots Altitude 34058 ft
19:55 Wind:178@003 Knots Heading: 287 Ground Speed: 489 Knots Altitude 34071 ft
20:10 Wind:048@005 Knots Heading: 278 Ground Speed: 493 Knots Altitude 34097 ft
20:12 TOC
20:12 Fuel Weight: 188345 Lb
20:12 TOD
20:12 Fuel Weight: 188168 Lb
20:25 Wind:014@012 Knots Heading: 293 Ground Speed: 487 Knots Altitude 34081 ft
20:40 Wind:185@020 Knots Heading: 287 Ground Speed: 491 Knots Altitude 34087 ft
20:55 Wind:142@035 Knots Heading: 270 Ground Speed: 507 Knots Altitude 34110 ft
21:10 Wind:112@010 Knots Heading: 277 Ground Speed: 492 Knots Altitude 34117 ft
21:25 Wind:058@024 Knots Heading: 278 Ground Speed: 500 Knots Altitude 34133 ft
21:40 Wind:048@013 Knots Heading: 287 Ground Speed: 372 Knots Altitude 19891 ft
21:45 Flaps:1 at 250 Knots
21:50 Flaps:2 at 222 Knots
21:50 Flaps:3 at 212 Knots
21:51 Flaps:4 at 186 Knots
21:51 Gear Down: 161 Knots
21:51 Flaps:5 at 159 Knots
21:51 Flaps:6 at 161 Knots
21:55 Wind:000@000 Knots Heading: 300 Ground Speed: 155 Knots Altitude 1391 ft
21:55 TouchDown:Rate -156 ft/min Speed: 146 Knots
21:56 VATSIM:LEZG 032130Z 00000KT 9999 BKN075 16/13 Q1019
21:56 Land
21:56 Wind:000@000 Knots
21:56 Heading: 300
21:56 Flight Duration: 04:01
21:56 Landing Weight: 616965 Lbs
21:56 POS N41 39 48 W001 01 36
21:57 Parking brakes on
21:57 Block to Block Duration: 04:12
21:57 Final Fuel: 149901 Lbls
21:57 Spent Fuel: 105315 Lbls
21:57 Flight Length: 1745 NM
21:57 TOD Land Length: 663 NM

Exportar CSV

Powered by Drupal - Modified by Danger4k